^^
Grace C. Lehan Memorial Weather Station Historical Data
Daily Summary for June 16, 2021 Units:  English    Metric   Both
Daily Weekly Monthly Yearly
  High: Low: Average:
Temperature: 76.2 °F 59.9 °F 68.1 °F
Dew Point: 59.2 °F 47.6 °F 54 °F
Humidity: 83% 38.4% 63%
Wind Speed: 9.7mph 0mph 2.2mph
Wind Gust: 18mph - -
Wind- - WNW
Pressure: 29.79 in 29.69 in -
Precipitation: 0.00 in    
 
 
Tabular Data for June 16, 2021
Time Temperature Dew Point Pressure Wind Wind Speed Wind Gust Humidity Rainfall Rate (Hourly) solar
00:04 65 °F 59.1 °F 29.72 in Calm   5 mph 81% 0.00 in 0 W/m2
00:09 64.9 °F 59 °F 29.72 in Calm   2 mph 81% 0.00 in 0 W/m2
00:14 64.8 °F 59.2 °F 29.72 in Calm   2 mph 82% 0.00 in 0 W/m2
00:19 64.7 °F 59.1 °F 29.72 in Calm   2 mph 82% 0.00 in 0 W/m2
00:24 64.6 °F 59 °F 29.72 in Calm   2 mph 82% 0.00 in 0 W/m2
00:29 64.4 °F 58.8 °F 29.71 in Calm   2 mph 82% 0.00 in 0 W/m2
00:34 64.3 °F 58.9 °F 29.72 in WNW 0.1 mph 3 mph 82.6% 0.00 in 0 W/m2
00:39 64.1 °F 58.9 °F 29.72 in Calm   3 mph 83% 0.00 in 0 W/m2
00:44 64 °F 58.8 °F 29.72 in WNW 1 mph 5 mph 83% 0.00 in 0 W/m2
00:49 64 °F 58.7 °F 29.72 in WNW 0.7 mph 6 mph 83% 0.00 in 0 W/m2
00:54 63.9 °F 58.6 °F 29.72 in WNW 0.4 mph 6 mph 83% 0.00 in 0 W/m2
00:59 63.9 °F 58.6 °F 29.72 in WNW 0.3 mph 6 mph 83% 0.00 in 0 W/m2
01:04 63.9 °F 58.6 °F 29.72 in NW 1.3 mph 10 mph 83% 0.00 in 0 W/m2
01:09 63.9 °F 58.6 °F 29.71 in WNW 0.7 mph 10 mph 82.9% 0.00 in 0 W/m2
01:14 63.9 °F 58.4 °F 29.71 in NW 0.2 mph 10 mph 82.3% 0.00 in 0 W/m2
01:19 63.9 °F 58.5 °F 29.71 in NW 0.5 mph 10 mph 82.6% 0.00 in 0 W/m2
01:24 63.9 °F 58.3 °F 29.71 in NW 0.5 mph 10 mph 82% 0.00 in 0 W/m2
01:29 63.8 °F 58.2 °F 29.70 in WNW 0.7 mph 10 mph 82% 0.00 in 0 W/m2
01:34 63.8 °F 58.2 °F 29.70 in WNW 0.6 mph 10 mph 82% 0.00 in 0 W/m2
01:39 63.8 °F 58.2 °F 29.70 in WNW 0.3 mph 5 mph 82% 0.00 in 0 W/m2
01:44 63.8 °F 58.2 °F 29.70 in Calm   5 mph 82% 0.00 in 0 W/m2
01:49 63.7 °F 58.2 °F 29.70 in WNW 0.1 mph 5 mph 82% 0.00 in 0 W/m2
01:54 63.7 °F 58.1 °F 29.70 in WNW 0.4 mph 5 mph 82% 0.00 in 0 W/m2
01:59 63.6 °F 58 °F 29.70 in Calm   5 mph 82% 0.00 in 0 W/m2
02:04 63.5 °F 57.9 °F 29.70 in Calm   5 mph 82% 0.00 in 0 W/m2
02:09 63.4 °F 57.8 °F 29.70 in Calm     82% 0.00 in 0 W/m2
02:14 63.3 °F 57.7 °F 29.70 in Calm     82% 0.00 in 0 W/m2
02:19 63.2 °F 57.6 °F 29.70 in Calm     82% 0.00 in 0 W/m2
02:24 63 °F 57.4 °F 29.70 in WNW 0.8 mph 6 mph 82% 0.00 in 0 W/m2
02:29 62.9 °F 57.3 °F 29.70 in NW 0.1 mph 6 mph 82% 0.00 in 0 W/m2
02:34 62.8 °F 57.2 °F 29.69 in NW 0.8 mph 6 mph 82% 0.00 in 0 W/m2
02:39 62.7 °F 57.1 °F 29.69 in NW 0.1 mph 4 mph 82% 0.00 in 0 W/m2
02:44 62.7 °F 57.1 °F 29.69 in Calm   4 mph 82% 0.00 in 0 W/m2
02:49 62.7 °F 56.8 °F 29.69 in NW 0.1 mph 4 mph 81.2% 0.00 in 0 W/m2
02:54 62.6 °F 56.7 °F 29.70 in NW 0.3 mph 4 mph 81% 0.00 in 0 W/m2
02:59 62.6 °F 56.6 °F 29.70 in NNW 0.7 mph 6 mph 81% 0.00 in 0 W/m2
03:04 62.5 °F 56.6 °F 29.70 in Calm   6 mph 80.9% 0.00 in 0 W/m2
03:09 62.4 °F 56.2 °F 29.70 in WNW 0.6 mph 5 mph 80% 0.00 in 0 W/m2
03:14 62.3 °F 56.1 °F 29.70 in WNW 0.4 mph 5 mph 80% 0.00 in 0 W/m2
03:19 62.2 °F 56 °F 29.70 in WNW 0.3 mph 5 mph 80% 0.00 in 0 W/m2
03:24 62.1 °F 55.9 °F 29.71 in Calm   5 mph 80% 0.00 in 0 W/m2
03:29 62 °F 55.8 °F 29.71 in Calm   5 mph 80% 0.00 in 0 W/m2
03:34 62 °F 55.5 °F 29.71 in Calm   5 mph 79.3% 0.00 in 0 W/m2
03:39 61.8 °F 55.3 °F 29.70 in Calm     79% 0.00 in 0 W/m2
03:44 61.7 °F 55.1 °F 29.70 in Calm   1 mph 79% 0.00 in 0 W/m2
03:49 61.6 °F 55 °F 29.71 in Calm   1 mph 79% 0.00 in 0 W/m2
03:54 61.4 °F 54.9 °F 29.71 in WNW 0.7 mph 7 mph 79% 0.00 in 0 W/m2
03:59 61.3 °F 54.7 °F 29.71 in WNW 1.1 mph 7 mph 78.9% 0.00 in 0 W/m2
04:09 61 °F 53.7 °F 29.71 in NW 2.4 mph 10 mph 77% 0.00 in 0 W/m2
04:14 60.9 °F 53.3 °F 29.71 in NW 1 mph 10 mph 76% 0.00 in 0 W/m2
04:19 60.9 °F 53.2 °F 29.71 in WNW 1.3 mph 10 mph 75.8% 0.00 in 0 W/m2
04:24 60.9 °F 52.9 °F 29.71 in NW 1.1 mph 10 mph 75% 0.00 in 0 W/m2
04:29 60.9 °F 52.9 °F 29.71 in WNW 1.5 mph 10 mph 75% 0.00 in 0 W/m2
04:33 60.8 °F 52.8 °F 29.71 in NW 2.2 mph 11 mph 75% 0.00 in 0 W/m2
04:39 60.8 °F 52.8 °F 29.71 in WNW 2.5 mph 11 mph 74.8% 0.00 in 0 W/m2
04:44 60.8 °F 52.6 °F 29.71 in WNW 1.3 mph 11 mph 74.3% 0.00 in 0 W/m2
04:49 60.7 °F 52.4 °F 29.71 in WNW 0.2 mph 11 mph 74% 0.00 in 0 W/m2
04:54 60.7 °F 52.3 °F 29.71 in NW 0.9 mph 11 mph 74% 0.00 in 0 W/m2
04:59 60.6 °F 52.2 °F 29.71 in NW 1.4 mph 11 mph 74% 0.00 in 0 W/m2
05:04 60.5 °F 52.1 °F 29.71 in WNW 0.5 mph 11 mph 74% 0.00 in 0 W/m2
05:09 60.3 °F 52.2 °F 29.71 in WNW 0.9 mph 6 mph 74.5% 0.00 in 0 W/m2
05:14 60.2 °F 52.2 °F 29.72 in WNW 1.4 mph 6 mph 74.7% 0.00 in 0 W/m2
05:19 60.1 °F 52.1 °F 29.72 in WNW 1.5 mph 11 mph 74.8% 0.00 in 0 W/m2
05:24 60.1 °F 52.1 °F 29.72 in NW 0.9 mph 11 mph 75% 0.00 in 0 W/m2
05:29 60 °F 52.1 °F 29.72 in NW 0.9 mph 11 mph 75% 0.00 in 5 W/m2
05:34 59.9 °F 52 °F 29.73 in West 1.2 mph 11 mph 75% 0.00 in 7 W/m2
05:39 59.9 °F 52 °F 29.73 in WNW 2 mph 7 mph 75.1% 0.00 in 9 W/m2
05:44 59.9 °F 51.6 °F 29.73 in NW 2.2 mph 10 mph 74% 0.00 in 11 W/m2
05:49 59.9 °F 51.6 °F 29.74 in WNW 2.1 mph 11 mph 74% 0.00 in 12 W/m2
05:54 60 °F 51.7 °F 29.74 in NW 1.3 mph 11 mph 74% 0.00 in 16 W/m2
05:59 60.1 °F 51.8 °F 29.74 in NW 1.7 mph 11 mph 74% 0.00 in 16 W/m2
06:04 60.2 °F 51.9 °F 29.74 in NNW 1.3 mph 11 mph 74% 0.00 in 18 W/m2
06:09 60.2 °F 52 °F 29.74 in Calm   5 mph 74.2% 0.00 in 19 W/m2
06:14 60.3 °F 52 °F 29.74 in NNW 0.3 mph 5 mph 74% 0.00 in 21 W/m2
06:19 60.4 °F 52.1 °F 29.74 in NNW 0.3 mph 5 mph 74% 0.00 in 21 W/m2
06:24 60.5 °F 52.4 °F 29.75 in NNW 0.2 mph 5 mph 74.5% 0.00 in 26 W/m2
06:29 60.7 °F 52.7 °F 29.75 in NNW 0.1 mph 5 mph 74.8% 0.00 in 35 W/m2
06:34 60.9 °F 52.8 °F 29.75 in West 0.5 mph 9 mph 74.9% 0.00 in 46 W/m2
06:39 61.1 °F 53.1 °F 29.75 in Calm   9 mph 75% 0.00 in 49 W/m2
06:44 61.6 °F 53.7 °F 29.75 in West 0.4 mph 9 mph 75.2% 0.00 in 60 W/m2
06:49 62.3 °F 54 °F 29.75 in North 0.3 mph 9 mph 74.2% 0.00 in 67 W/m2
06:54 63.2 °F 54.5 °F 29.75 in NW 1.5 mph 9 mph 73.4% 0.00 in 69 W/m2
06:59 64 °F 54.9 °F 29.75 in Calm   9 mph 72.1% 0.00 in 70 W/m2
07:04 64.8 °F 55.5 °F 29.76 in Calm   9 mph 72% 0.00 in 72 W/m2
07:09 65.5 °F 55.7 °F 29.76 in NNW 0.6 mph 5 mph 70.7% 0.00 in 74 W/m2
07:14 66.1 °F 55.7 °F 29.76 in Calm   5 mph 69.2% 0.00 in 76 W/m2
07:19 66.7 °F 56.3 °F 29.76 in NNW 0.1 mph 5 mph 69.2% 0.00 in 77 W/m2
07:24 67.2 °F 56.2 °F 29.76 in NNW 0.7 mph 11 mph 67.9% 0.00 in 304 W/m2
07:29 67.5 °F 56 °F 29.76 in NW 1.4 mph 11 mph 66.5% 0.00 in 350 W/m2
07:34 67.9 °F 56.5 °F 29.76 in NW 2 mph 11 mph 66.8% 0.00 in 364 W/m2
07:39 68.1 °F 56.2 °F 29.76 in WNW 2.7 mph 11 mph 65.7% 0.00 in 383 W/m2
07:44 68.2 °F 56.1 °F 29.76 in NW 2.5 mph 12 mph 65.2% 0.00 in 408 W/m2
07:49 68.5 °F 56.2 °F 29.76 in NW 0.8 mph 12 mph 64.9% 0.00 in 424 W/m2
07:54 68.9 °F 57.1 °F 29.76 in NNW 0.3 mph 12 mph 66.2% 0.00 in 441 W/m2
07:59 69.4 °F 56.7 °F 29.76 in NW 0.4 mph 12 mph 64.1% 0.00 in 457 W/m2
08:00 69.7 °F 57 °F 29.76 in Calm   12 mph 64% 0.00 in 459 W/m2
08:09 70.2 °F 57 °F 29.76 in NW 4.2 mph 11 mph 62.9% 0.00 in 490 W/m2
08:14 70 °F 56.5 °F 29.76 in WNW 2.3 mph 12 mph 62.3% 0.00 in 506 W/m2
08:19 70 °F 57.5 °F 29.76 in NNW 0.2 mph 12 mph 64.5% 0.00 in 524 W/m2
08:24 70.2 °F 57.5 °F 29.76 in NW 1 mph 12 mph 64.2% 0.00 in 543 W/m2
08:29 70.6 °F 57.3 °F 29.76 in West 1.6 mph 12 mph 62.9% 0.00 in 561 W/m2
08:34 70.8 °F 57.7 °F 29.76 in WNW 2.2 mph 12 mph 63.2% 0.00 in 575 W/m2
08:39 71.1 °F 57.1 °F 29.76 in WNW 4.2 mph 11 mph 61.2% 0.00 in 594 W/m2
08:44 71.1 °F 56.8 °F 29.76 in WNW 3.9 mph 14 mph 60.6% 0.00 in 608 W/m2
08:49 71.3 °F 57.2 °F 29.76 in WNW 3 mph 14 mph 61% 0.00 in 626 W/m2
08:54 71.7 °F 57.6 °F 29.75 in WNW 5 mph 15 mph 61% 0.00 in 640 W/m2
08:59 72.1 °F 57.2 °F 29.76 in WNW 4.5 mph 15 mph 59.5% 0.00 in 656 W/m2
09:04 72.2 °F 56.9 °F 29.76 in WNW 3.9 mph 15 mph 58.7% 0.00 in 670 W/m2
09:09 72.3 °F 57.5 °F 29.76 in NW 3 mph 11 mph 59.5% 0.00 in 686 W/m2
09:14 72.5 °F 57.5 °F 29.76 in NW 3.5 mph 17 mph 59.2% 0.00 in 696 W/m2
09:19 72.9 °F 57.1 °F 29.76 in WNW 4.1 mph 17 mph 57.6% 0.00 in 712 W/m2
09:24 73.1 °F 56.8 °F 29.76 in NW 5.9 mph 17 mph 56.7% 0.00 in 726 W/m2
09:29 72.9 °F 56.7 °F 29.77 in NW 3.6 mph 17 mph 56.8% 0.00 in 740 W/m2
09:34 72.9 °F 57.3 °F 29.77 in WNW 2.5 mph 17 mph 58% 0.00 in 752 W/m2
09:39 73.1 °F 57.2 °F 29.77 in NW 3.7 mph 16 mph 57.4% 0.00 in 766 W/m2
09:44 73.4 °F 56.8 °F 29.77 in WNW 4 mph 16 mph 56.2% 0.00 in 779 W/m2
09:49 73.7 °F 57.7 °F 29.77 in NW 2.9 mph 16 mph 57.4% 0.00 in 793 W/m2
09:54 74.1 °F 57.4 °F 29.77 in NW 2.9 mph 16 mph 55.8% 0.00 in 809 W/m2
09:59 74.2 °F 55.4 °F 29.77 in NW 5 mph 16 mph 51.9% 0.00 in 824 W/m2
10:04 74 °F 54.8 °F 29.78 in WNW 5.2 mph 16 mph 51% 0.00 in 840 W/m2
10:09 74.1 °F 54.8 °F 29.78 in WNW 5.1 mph 15 mph 51% 0.00 in 851 W/m2
10:14 74 °F 54.1 °F 29.78 in WNW 5.1 mph 15 mph 49.8% 0.00 in 854 W/m2
10:19 73.8 °F 55.3 °F 29.78 in NW 2.8 mph 15 mph 52.4% 0.00 in 867 W/m2
10:24 74.3 °F 56.1 °F 29.78 in WNW 1.8 mph 15 mph 53.2% 0.00 in 877 W/m2
10:29 74.7 °F 56.3 °F 29.78 in WNW 1.6 mph 15 mph 52.7% 0.00 in 914 W/m2
10:34 75.2 °F 55.4 °F 29.78 in WNW 5.4 mph 16 mph 50.3% 0.00 in 907 W/m2
10:39 75.2 °F 54.1 °F 29.78 in WNW 5 mph 16 mph 47.9% 0.00 in 932 W/m2
10:44 75.1 °F 52.7 °F 29.78 in WNW 6.1 mph 18 mph 45.6% 0.00 in 983 W/m2
10:49 74.4 °F 50.7 °F 29.78 in WNW 7.2 mph 18 mph 43.4% 0.00 in 983 W/m2
10:54 74.1 °F 50.1 °F 29.78 in WNW 5.3 mph 18 mph 42.9% 0.00 in 970 W/m2
10:59 74.2 °F 50.3 °F 29.78 in NW 4.8 mph 18 mph 43.1% 0.00 in 939 W/m2
11:04 74.4 °F 49.8 °F 29.78 in NW 4.7 mph 18 mph 41.8% 0.00 in 935 W/m2
11:09 74.7 °F 49.3 °F 29.78 in WNW 5.2 mph 17 mph 40.7% 0.00 in 942 W/m2
11:14 74.7 °F 50.2 °F 29.78 in WNW 3.8 mph 17 mph 42% 0.00 in 951 W/m2
11:19 75 °F 50 °F 29.78 in WNW 7 mph 17 mph 41.5% 0.00 in 956 W/m2
11:24 75 °F 49.7 °F 29.78 in WNW 5 mph 17 mph 41.1% 0.00 in 962 W/m2
11:29 74.9 °F 49.8 °F 29.78 in NW 5 mph 17 mph 41.2% 0.00 in 970 W/m2
11:34 74.8 °F 49.3 °F 29.78 in WNW 5.3 mph 17 mph 40.7% 0.00 in 976 W/m2
11:39 74.8 °F 49.9 °F 29.78 in NW 3.4 mph 16 mph 41.6% 0.00 in 979 W/m2
11:44 75 °F 50.2 °F 29.78 in WNW 3.7 mph 16 mph 41.7% 0.00 in 986 W/m2
11:49 75.1 °F 49.2 °F 29.78 in WNW 5 mph 16 mph 40.1% 0.00 in 988 W/m2
11:54 75 °F 48.8 °F 29.79 in WNW 6.5 mph 16 mph 39.6% 0.00 in 991 W/m2
11:59 74.6 °F 47.6 °F 29.79 in WNW 5.7 mph 16 mph 38.4% 0.00 in 1000 W/m2
12:04 74.4 °F 48.1 °F 29.79 in WNW 9.7 mph 16 mph 39.3% 0.00 in 1000 W/m2
12:09 74.2 °F 48.2 °F 29.79 in NW 5.9 mph 15 mph 39.7% 0.00 in 1009 W/m2
12:14 74.1 °F 48.2 °F 29.79 in West 5.5 mph 15 mph 39.9% 0.00 in 1009 W/m2
12:19 74.2 °F 48.1 °F 29.79 in WNW 3.4 mph 15 mph 39.7% 0.00 in 1014 W/m2
12:24 74.4 °F 48.9 °F 29.79 in WNW 4.5 mph 15 mph 40.6% 0.00 in 1016 W/m2
12:29 74.6 °F 49.1 °F 29.79 in West 2.9 mph 15 mph 40.6% 0.00 in 1014 W/m2
12:34 74.8 °F 50.4 °F 29.79 in NW 4.1 mph 15 mph 42.5% 0.00 in 1016 W/m2
12:39 74.8 °F 49.9 °F 29.79 in West 4.7 mph 14 mph 41.5% 0.00 in 1020 W/m2
12:44 75 °F 50.6 °F 29.79 in WNW 2.3 mph 14 mph 42.5% 0.00 in 1025 W/m2
12:49 75.2 °F 49.8 °F 29.79 in WNW 5.4 mph 16 mph 40.9% 0.00 in 1039 W/m2
12:54 75.1 °F 49.4 °F 29.79 in WNW 5.2 mph 16 mph 40.3% 0.00 in 1027 W/m2
12:59 74.9 °F 48.2 °F 29.79 in WNW 5.8 mph 16 mph 38.8% 0.00 in 1028 W/m2
13:04 74.5 °F 48 °F 29.79 in NW 3.3 mph 16 mph 39.1% 0.00 in 1028 W/m2
13:09 74.6 °F 48.8 °F 29.79 in NNW 2.5 mph 11 mph 40.1% 0.00 in 1037 W/m2
13:14 74.9 °F 50.2 °F 29.79 in West 2.5 mph 14 mph 42% 0.00 in 1025 W/m2
13:19 75.1 °F 49.8 °F 29.79 in West 4 mph 14 mph 41% 0.00 in 1037 W/m2
13:24 75.2 °F 50.1 °F 29.79 in West 4.8 mph 14 mph 41.2% 0.00 in 1051 W/m2
13:29 75.1 °F 49.9 °F 29.79 in WNW 4.4 mph 14 mph 41.2% 0.00 in 1051 W/m2
13:34 74.9 °F 48.4 °F 29.79 in NNW 4 mph 14 mph 39.2% 0.00 in 1025 W/m2
13:39 74.8 °F 48.9 °F 29.79 in NW 1.7 mph 14 mph 40% 0.00 in 1034 W/m2
13:44 75 °F 49.9 °F 29.79 in WNW 3.4 mph 14 mph 41.2% 0.00 in 1141 W/m2
13:49 75.1 °F 50.4 °F 29.79 in WNW 2.3 mph 14 mph 41.8% 0.00 in 1141 W/m2
13:54 75.1 °F 50.4 °F 29.78 in WNW 1.7 mph 14 mph 42% 0.00 in 1086 W/m2
13:59 75.1 °F 49.8 °F 29.79 in WNW 4.3 mph 15 mph 40.9% 0.00 in 1030 W/m2
14:04 75.2 °F 49.3 °F 29.79 in West 2.1 mph 15 mph 40.1% 0.00 in 1011 W/m2
14:09 75.6 °F 50.6 °F 29.79 in WNW 3.3 mph 15 mph 41.6% 0.00 in 1011 W/m2
14:14 75.9 °F 50.1 °F 29.79 in WNW 4.8 mph 15 mph 40.3% 0.00 in 1020 W/m2
14:19 75.9 °F 49.8 °F 29.79 in WNW 3.7 mph 15 mph 39.8% 0.00 in 1020 W/m2
14:24 75.7 °F 50 °F 29.79 in NW 3.5 mph 15 mph 40.5% 0.00 in 986 W/m2
14:29 75.7 °F 49.8 °F 29.79 in WNW 2.6 mph 15 mph 40.2% 0.00 in 1027 W/m2
14:34 75.7 °F 48.7 °F 29.79 in WNW 3.1 mph 15 mph 38.6% 0.00 in 1007 W/m2
14:39 75.3 °F 48.4 °F 29.79 in WNW 7 mph 17 mph 38.7% 0.00 in 990 W/m2
14:44 75.1 °F 49 °F 29.79 in West 3.8 mph 17 mph 39.8% 0.00 in 976 W/m2
14:49 75.3 °F 49.7 °F 29.79 in WNW 2.3 mph 17 mph 40.4% 0.00 in 954 W/m2
14:54 75.7 °F 50.6 °F 29.79 in WNW 2.1 mph 17 mph 41.4% 0.00 in 962 W/m2
14:58 76.2 °F 51.2 °F 29.79 in WNW 5.9 mph 17 mph 41.6% 0.00 in 970 W/m2
Hartford County Weather
Compliments of Weather Underground - 4 mb